This is the latest recevied weather packets stored in our database for station/object KQ4OSL. If no packets are shown the sender has not sent any weather packets the latest 10 day(s).
| Time | Temp. | Humidity | Pressure | Rain* | Wind** | Luminosity | Snow |
|---|---|---|---|---|---|---|---|
| 1787868572 | 27.78° C | 83% | 1016.8 hPa | 0 mm | - | 79 W/m² | - |
| 1787868271 | 27.78° C | 82% | 1016.4 hPa | 0 mm | - | 77 W/m² | - |
| 1787867966 | 27.78° C | 83% | 1016.6 hPa | 0 mm | - | 76 W/m² | - |
| 1787867662 | 27.78° C | 81% | 1016.3 hPa | 0 mm | - | 81 W/m² | - |
| 1787867362 | 27.78° C | 80% | 1016.3 hPa | 0 mm | - | 81 W/m² | - |
| 1787867058 | 27.78° C | 79% | 1016.2 hPa | 0 mm | - | 90 W/m² | - |
| 1787866753 | 27.78° C | 80% | 1016.3 hPa | 0 mm | - | 102 W/m² | - |
| 1787866452 | 28.33° C | 77% | 1016.2 hPa | 0 mm | - | 99 W/m² | - |
| 1787866151 | 28.33° C | 78% | 1016.2 hPa | 0 mm | - | 131 W/m² | - |
| 1787865846 | 28.33° C | 77% | 1016.1 hPa | 0 mm | - | 102 W/m² | - |
| 1787865542 | 28.89° C | 76% | 1016.1 hPa | 0 mm | - | 125 W/m² | - |
| 1787865236 | 28.89° C | 75% | 1016.1 hPa | 0 mm | - | 228 W/m² | - |
| 1787864933 | 29.44° C | 73% | 1016.2 hPa | 0 mm | - | 195 W/m² | - |
| 1787864629 | 30° C | 73% | 1016.3 hPa | 0 mm | - | 207 W/m² | - |
| 1787864327 | 30° C | 73% | 1016.1 hPa | 0 mm | - | 391 W/m² | - |
| 1787864022 | 30° C | 71% | 1016.3 hPa | 0 mm | - | 409 W/m² | - |
| 1787863721 | 30.56° C | 72% | 1016.3 hPa | 0 mm | - | 348 W/m² | - |
| 1787863420 | 30.56° C | 71% | 1016.3 hPa | 0 mm | - | 472 W/m² | - |
| 1787863116 | 30° C | 72% | 1016.3 hPa | 0 mm | - | 305 W/m² | - |
| 1787862811 | 31.11° C | 70% | 1016.5 hPa | 0 mm | - | 386 W/m² | - |
| 1787862511 | 30° C | 72% | 1016.4 hPa | 0 mm | - | 480 W/m² | - |
| 1787862206 | 30° C | 73% | 1016.3 hPa | 0 mm | - | 368 W/m² | - |
| 1787861901 | 29.44° C | 75% | 1016.3 hPa | 0 mm | - | 312 W/m² | - |
| 1787861601 | 28.89° C | 75% | 1016.4 hPa | 0 mm | - | 292 W/m² | - |
| 1787861299 | 30° C | 75% | 1016.4 hPa | 0 mm | - | 281 W/m² | - |
* Rain latest hour (hover to see other rain measurements)
** Current wind speed in m/s (hover to see current wind gust speed)